sensor_id;sensor_type;location;lat;lon;timestamp;temperature;humidity
67165;SHT31;54093;50.014;19.984;2023-03-23T00:00:47;9.54;71.26
67165;SHT31;54093;50.014;19.984;2023-03-23T00:10:09;9.39;72.13
67165;SHT31;54093;50.014;19.984;2023-03-23T00:19:30;9.11;72.14
67165;SHT31;54093;50.014;19.984;2023-03-23T00:28:53;8.97;72.74
67165;SHT31;54093;50.014;19.984;2023-03-23T00:38:15;8.89;72.79
67165;SHT31;54093;50.014;19.984;2023-03-23T00:47:37;8.74;73.04
67165;SHT31;54093;50.014;19.984;2023-03-23T00:56:58;8.64;73.33
67165;SHT31;54093;50.014;19.984;2023-03-23T01:06:19;8.64;73.17
67165;SHT31;54093;50.014;19.984;2023-03-23T01:15:40;8.58;73.23
67165;SHT31;54093;50.014;19.984;2023-03-23T01:25:02;8.57;73.40
67165;SHT31;54093;50.014;19.984;2023-03-23T01:34:23;8.64;73.12
67165;SHT31;54093;50.014;19.984;2023-03-23T01:44:04;8.70;73.16
67165;SHT31;54093;50.014;19.984;2023-03-23T01:53:42;8.85;72.73
67165;SHT31;54093;50.014;19.984;2023-03-23T02:03:03;8.82;72.99
67165;SHT31;54093;50.014;19.984;2023-03-23T02:12:24;8.81;73.44
67165;SHT31;54093;50.014;19.984;2023-03-23T02:31:45;8.91;73.08
67165;SHT31;54093;50.014;19.984;2023-03-23T02:41:08;9.05;72.61
67165;SHT31;54093;50.014;19.984;2023-03-23T02:50:33;9.09;72.54
67165;SHT31;54093;50.014;19.984;2023-03-23T02:59:54;9.16;72.55
67165;SHT31;54093;50.014;19.984;2023-03-23T03:09:46;9.07;72.81
67165;SHT31;54093;50.014;19.984;2023-03-23T03:19:32;9.01;72.69
67165;SHT31;54093;50.014;19.984;2023-03-23T03:28:56;8.95;72.89
67165;SHT31;54093;50.014;19.984;2023-03-23T03:38:17;8.82;73.41
67165;SHT31;54093;50.014;19.984;2023-03-23T03:47:38;8.78;73.55
67165;SHT31;54093;50.014;19.984;2023-03-23T03:56:59;8.78;73.32
67165;SHT31;54093;50.014;19.984;2023-03-23T04:06:21;8.92;72.86
67165;SHT31;54093;50.014;19.984;2023-03-23T04:15:44;8.89;73.01
67165;SHT31;54093;50.014;19.984;2023-03-23T04:25:05;8.85;72.97
67165;SHT31;54093;50.014;19.984;2023-03-23T04:34:27;8.88;73.06
67165;SHT31;54093;50.014;19.984;2023-03-23T04:43:48;9.08;72.56
67165;SHT31;54093;50.014;19.984;2023-03-23T04:53:13;9.30;72.52
67165;SHT31;54093;50.014;19.984;2023-03-23T05:02:38;9.25;72.51
67165;SHT31;54093;50.014;19.984;2023-03-23T05:12:07;9.26;72.73
67165;SHT31;54093;50.014;19.984;2023-03-23T05:21:28;9.26;72.59
67165;SHT31;54093;50.014;19.984;2023-03-23T05:30:50;9.40;72.66
67165;SHT31;54093;50.014;19.984;2023-03-23T05:40:12;9.70;71.78
67165;SHT31;54093;50.014;19.984;2023-03-23T05:49:33;9.83;72.15
67165;SHT31;54093;50.014;19.984;2023-03-23T05:58:57;10.16;71.97
67165;SHT31;54093;50.014;19.984;2023-03-23T06:08:18;10.70;70.40
67165;SHT31;54093;50.014;19.984;2023-03-23T06:17:39;11.52;68.29
67165;SHT31;54093;50.014;19.984;2023-03-23T06:27:01;12.01;65.95
67165;SHT31;54093;50.014;19.984;2023-03-23T06:36:22;12.47;64.63
67165;SHT31;54093;50.014;19.984;2023-03-23T06:45:43;12.96;62.74
67165;SHT31;54093;50.014;19.984;2023-03-23T06:55:04;13.36;61.79
67165;SHT31;54093;50.014;19.984;2023-03-23T07:04:26;13.86;60.96
67165;SHT31;54093;50.014;19.984;2023-03-23T07:13:50;14.23;59.16
67165;SHT31;54093;50.014;19.984;2023-03-23T07:23:11;14.55;58.48
67165;SHT31;54093;50.014;19.984;2023-03-23T07:32:32;14.84;57.79
67165;SHT31;54093;50.014;19.984;2023-03-23T07:41:52;15.29;54.92
67165;SHT31;54093;50.014;19.984;2023-03-23T07:51:13;15.56;54.56
67165;SHT31;54093;50.014;19.984;2023-03-23T08:00:38;15.85;53.82
67165;SHT31;54093;50.014;19.984;2023-03-23T08:10:01;16.07;52.56
67165;SHT31;54093;50.014;19.984;2023-03-23T08:19:22;16.22;52.53
67165;SHT31;54093;50.014;19.984;2023-03-23T08:28:44;16.24;51.93
67165;SHT31;54093;50.014;19.984;2023-03-23T08:38:05;16.14;51.40
67165;SHT31;54093;50.014;19.984;2023-03-23T08:47:26;16.13;51.78
67165;SHT31;54093;50.014;19.984;2023-03-23T08:56:47;16.20;51.54
67165;SHT31;54093;50.014;19.984;2023-03-23T09:06:11;16.22;51.53
67165;SHT31;54093;50.014;19.984;2023-03-23T09:15:34;16.27;51.48
67165;SHT31;54093;50.014;19.984;2023-03-23T09:24:55;16.54;51.56
67165;SHT31;54093;50.014;19.984;2023-03-23T09:34:15;16.94;50.12
67165;SHT31;54093;50.014;19.984;2023-03-23T09:43:53;17.07;49.48
67165;SHT31;54093;50.014;19.984;2023-03-23T09:53:22;17.38;46.45
67165;SHT31;54093;50.014;19.984;2023-03-23T10:12:36;18.22;42.50
67165;SHT31;54093;50.014;19.984;2023-03-23T10:22:09;18.69;39.93
67165;SHT31;54093;50.014;19.984;2023-03-23T10:31:43;19.39;39.21
67165;SHT31;54093;50.014;19.984;2023-03-23T10:41:14;19.74;37.95
67165;SHT31;54093;50.014;19.984;2023-03-23T10:50:38;20.11;37.46
67165;SHT31;54093;50.014;19.984;2023-03-23T11:09:38;20.43;35.81
67165;SHT31;54093;50.014;19.984;2023-03-23T11:19:10;20.87;34.33
67165;SHT31;54093;50.014;19.984;2023-03-23T11:28:35;21.31;31.96
67165;SHT31;54093;50.014;19.984;2023-03-23T11:37:58;21.37;32.23
67165;SHT31;54093;50.014;19.984;2023-03-23T11:47:37;21.41;32.99
67165;SHT31;54093;50.014;19.984;2023-03-23T11:57:00;21.51;33.05
67165;SHT31;54093;50.014;19.984;2023-03-23T12:06:36;21.35;33.33
67165;SHT31;54093;50.014;19.984;2023-03-23T12:35:24;20.08;35.77
67165;SHT31;54093;50.014;19.984;2023-03-23T12:44:53;19.74;37.03
67165;SHT31;54093;50.014;19.984;2023-03-23T12:54:24;19.53;37.74
67165;SHT31;54093;50.014;19.984;2023-03-23T13:04:20;19.33;37.86
67165;SHT31;54093;50.014;19.984;2023-03-23T13:13:49;19.25;38.45
67165;SHT31;54093;50.014;19.984;2023-03-23T13:23:35;19.08;39.35
67165;SHT31;54093;50.014;19.984;2023-03-23T13:33:06;18.92;40.43
67165;SHT31;54093;50.014;19.984;2023-03-23T13:42:32;18.81;41.00
67165;SHT31;54093;50.014;19.984;2023-03-23T13:52:06;18.78;40.78
67165;SHT31;54093;50.014;19.984;2023-03-23T14:01:36;18.68;41.63
67165;SHT31;54093;50.014;19.984;2023-03-23T14:11:01;18.65;42.16
67165;SHT31;54093;50.014;19.984;2023-03-23T14:20:31;18.68;41.24
67165;SHT31;54093;50.014;19.984;2023-03-23T14:30:02;18.60;42.25
67165;SHT31;54093;50.014;19.984;2023-03-23T14:39:25;18.56;42.44
67165;SHT31;54093;50.014;19.984;2023-03-23T14:48:47;18.48;43.27
67165;SHT31;54093;50.014;19.984;2023-03-23T14:58:13;18.44;43.64
67165;SHT31;54093;50.014;19.984;2023-03-23T15:07:36;18.41;43.25
67165;SHT31;54093;50.014;19.984;2023-03-23T15:16:59;18.40;43.70
67165;SHT31;54093;50.014;19.984;2023-03-23T15:26:41;18.34;43.82
67165;SHT31;54093;50.014;19.984;2023-03-23T15:36:08;18.26;44.20
67165;SHT31;54093;50.014;19.984;2023-03-23T15:45:30;18.19;44.63
67165;SHT31;54093;50.014;19.984;2023-03-23T15:54:51;18.13;45.17
67165;SHT31;54093;50.014;19.984;2023-03-23T16:04:14;18.05;45.96
67165;SHT31;54093;50.014;19.984;2023-03-23T16:13:38;17.93;46.98
67165;SHT31;54093;50.014;19.984;2023-03-23T16:22:59;17.79;46.69
67165;SHT31;54093;50.014;19.984;2023-03-23T16:32:20;17.72;46.33
67165;SHT31;54093;50.014;19.984;2023-03-23T16:41:41;17.71;44.99
67165;SHT31;54093;50.014;19.984;2023-03-23T16:51:02;17.60;44.71
67165;SHT31;54093;50.014;19.984;2023-03-23T17:00:26;17.50;44.68
67165;SHT31;54093;50.014;19.984;2023-03-23T17:09:47;17.45;44.54
67165;SHT31;54093;50.014;19.984;2023-03-23T17:19:10;17.31;44.77
67165;SHT31;54093;50.014;19.984;2023-03-23T17:28:36;17.20;44.36
67165;SHT31;54093;50.014;19.984;2023-03-23T17:37:59;17.09;44.56
67165;SHT31;54093;50.014;19.984;2023-03-23T17:47:20;17.03;44.65
67165;SHT31;54093;50.014;19.984;2023-03-23T17:56:44;16.93;44.53
67165;SHT31;54093;50.014;19.984;2023-03-23T18:06:06;16.84;45.03
67165;SHT31;54093;50.014;19.984;2023-03-23T18:15:30;16.82;45.27
67165;SHT31;54093;50.014;19.984;2023-03-23T18:24:53;16.62;47.46
67165;SHT31;54093;50.014;19.984;2023-03-23T18:34:14;16.42;46.39
67165;SHT31;54093;50.014;19.984;2023-03-23T18:43:39;16.04;50.39
67165;SHT31;54093;50.014;19.984;2023-03-23T18:53:00;15.79;52.45
67165;SHT31;54093;50.014;19.984;2023-03-23T19:02:23;15.60;51.56
67165;SHT31;54093;50.014;19.984;2023-03-23T19:11:45;15.45;50.59
67165;SHT31;54093;50.014;19.984;2023-03-23T19:21:07;15.40;50.99
67165;SHT31;54093;50.014;19.984;2023-03-23T19:30:28;15.40;50.86
67165;SHT31;54093;50.014;19.984;2023-03-23T19:39:51;15.49;50.00
67165;SHT31;54093;50.014;19.984;2023-03-23T19:49:12;15.55;50.78
67165;SHT31;54093;50.014;19.984;2023-03-23T19:58:33;15.56;49.48
67165;SHT31;54093;50.014;19.984;2023-03-23T20:07:54;15.56;49.36
67165;SHT31;54093;50.014;19.984;2023-03-23T20:17:16;15.59;49.33
67165;SHT31;54093;50.014;19.984;2023-03-23T20:26:40;15.69;48.68
67165;SHT31;54093;50.014;19.984;2023-03-23T20:36:03;15.65;49.10
67165;SHT31;54093;50.014;19.984;2023-03-23T20:45:24;15.89;48.51
67165;SHT31;54093;50.014;19.984;2023-03-23T20:54:45;15.96;48.14
67165;SHT31;54093;50.014;19.984;2023-03-23T21:04:08;16.08;48.13
67165;SHT31;54093;50.014;19.984;2023-03-23T21:13:34;16.24;48.12
67165;SHT31;54093;50.014;19.984;2023-03-23T21:22:56;16.27;48.06
67165;SHT31;54093;50.014;19.984;2023-03-23T21:32:17;16.31;48.73
67165;SHT31;54093;50.014;19.984;2023-03-23T21:41:38;16.15;49.24
67165;SHT31;54093;50.014;19.984;2023-03-23T21:51:07;16.17;49.40
67165;SHT31;54093;50.014;19.984;2023-03-23T22:00:28;16.20;49.45
67165;SHT31;54093;50.014;19.984;2023-03-23T22:09:50;16.13;49.65
67165;SHT31;54093;50.014;19.984;2023-03-23T22:19:11;16.00;50.16
67165;SHT31;54093;50.014;19.984;2023-03-23T22:28:32;16.08;50.04
67165;SHT31;54093;50.014;19.984;2023-03-23T22:37:56;16.10;50.26
67165;SHT31;54093;50.014;19.984;2023-03-23T22:47:17;16.25;49.89
67165;SHT31;54093;50.014;19.984;2023-03-23T22:56:38;16.29;50.24
67165;SHT31;54093;50.014;19.984;2023-03-23T23:05:59;16.29;50.02
67165;SHT31;54093;50.014;19.984;2023-03-23T23:15:21;16.21;50.84
67165;SHT31;54093;50.014;19.984;2023-03-23T23:24:42;16.07;51.43
67165;SHT31;54093;50.014;19.984;2023-03-23T23:34:03;16.04;51.34
67165;SHT31;54093;50.014;19.984;2023-03-23T23:43:25;15.94;51.94
67165;SHT31;54093;50.014;19.984;2023-03-23T23:52:47;15.90;52.14
